createdAt,value
2023-01-29T00:02:08.573Z,99440.06
2023-01-29T00:04:35.607Z,99444.38
2023-01-29T00:07:02.771Z,99445.25
2023-01-29T00:09:29.781Z,99439.22
2023-01-29T00:11:57.214Z,99443.56
2023-01-29T00:14:24.072Z,99444.38
2023-01-29T00:16:51.369Z,99440.09
2023-01-29T00:19:18.907Z,99445.28
2023-01-29T00:21:46.414Z,99433.16
2023-01-29T00:24:13.586Z,99434.88
2023-01-29T00:26:42.475Z,99439.19
2023-01-29T00:29:09.416Z,99443.47
2023-01-29T00:31:36.870Z,99445.22
2023-01-29T00:34:03.926Z,99446.06
2023-01-29T00:36:31.183Z,99453.84
2023-01-29T00:39:00.708Z,99454.72
2023-01-29T00:41:51.216Z,99456.41
2023-01-29T00:44:37.817Z,99448.63
2023-01-29T00:47:25.723Z,99451.19
2023-01-29T00:49:52.751Z,99459.84
2023-01-29T00:52:25.903Z,99456.38
2023-01-29T00:54:54.836Z,99453.78
2023-01-29T00:57:22.942Z,99457.28
2023-01-29T00:59:49.872Z,99449.50
2023-01-29T01:02:36.775Z,99448.63
2023-01-29T01:05:06.270Z,99447.78
2023-01-29T01:07:34.019Z,99452.94
2023-01-29T01:10:19.825Z,99451.22
2023-01-29T01:13:07.767Z,99443.44
2023-01-29T01:15:36.898Z,99437.41
2023-01-29T01:18:05.005Z,99441.75
2023-01-29T01:20:34.644Z,99444.34
2023-01-29T01:23:01.856Z,99434.84
2023-01-29T01:25:28.994Z,99446.06
2023-01-29T01:30:26.460Z,99454.69
2023-01-29T01:32:54.206Z,99448.66
2023-01-29T01:35:21.246Z,99451.25
2023-01-29T01:37:48.411Z,99446.88
2023-01-29T01:40:19.165Z,99447.72
2023-01-29T01:42:51.966Z,99447.75
2023-01-29T01:45:36.246Z,99445.16
2023-01-29T01:48:19.585Z,99459.81
2023-01-29T01:50:51.169Z,99468.44
2023-01-29T01:53:29.053Z,99450.28
2023-01-29T01:56:01.699Z,99460.66
2023-01-29T01:58:43.618Z,99459.75
2023-01-29T02:01:12.478Z,99462.34
2023-01-29T02:04:05.468Z,99463.22
2023-01-29T02:06:52.696Z,99463.25
2023-01-29T02:09:35.469Z,99461.50
2023-01-29T02:12:05.316Z,99458.88
2023-01-29T02:14:34.631Z,99458.03
2023-01-29T02:17:01.824Z,99453.63
2023-01-29T02:19:50.930Z,99464.84
2023-01-29T02:22:25.907Z,99463.94
2023-01-29T02:25:11.125Z,99462.22
2023-01-29T02:27:56.780Z,99456.13
2023-01-29T02:30:33.760Z,99454.38
2023-01-29T02:33:28.523Z,99453.50
2023-01-29T02:35:59.539Z,99446.63
2023-01-29T02:39:00.177Z,99453.53
2023-01-29T02:41:33.015Z,99447.47
2023-01-29T02:44:08.928Z,99448.38
2023-01-29T02:46:48.486Z,99449.22
2023-01-29T02:49:24.713Z,99443.22
2023-01-29T02:51:57.065Z,99431.13
2023-01-29T02:54:32.759Z,99437.19
2023-01-29T02:57:04.766Z,99441.47
2023-01-29T03:00:07.977Z,99431.06
2023-01-29T03:02:46.015Z,99419.88
2023-01-29T03:05:43.442Z,99423.34
2023-01-29T03:08:16.304Z,99423.34
2023-01-29T03:11:02.786Z,99422.47
2023-01-29T03:13:53.255Z,99422.53
2023-01-29T03:16:52.579Z,99430.28
2023-01-29T03:19:38.291Z,99430.31
2023-01-29T03:22:08.623Z,99446.72
2023-01-29T03:25:06.502Z,99449.34
2023-01-29T03:27:56.039Z,99448.44
2023-01-29T03:30:44.768Z,99447.59
2023-01-29T03:33:14.154Z,99446.72
2023-01-29T03:35:50.165Z,99455.34
2023-01-29T03:38:17.488Z,99461.38
2023-01-29T03:41:03.915Z,99452.75
2023-01-29T03:43:51.801Z,99451.88
2023-01-29T03:46:29.282Z,99450.16
2023-01-29T03:49:26.510Z,99446.69
2023-01-29T03:51:59.380Z,99451.84
2023-01-29T03:54:36.642Z,99444.06
2023-01-29T03:57:20.396Z,99438.91
2023-01-29T04:00:12.498Z,99442.34
2023-01-29T04:02:44.649Z,99447.50
2023-01-29T04:05:18.762Z,99438.03
2023-01-29T04:07:48.417Z,99438.03
2023-01-29T04:10:21.446Z,99447.53
2023-01-29T04:12:55.063Z,99442.38
2023-01-29T04:15:24.523Z,99441.53
2023-01-29T04:17:53.212Z,99442.38
2023-01-29T04:20:21.424Z,99432.06
2023-01-29T04:22:51.204Z,99421.69
2023-01-29T04:25:26.838Z,99420.78
2023-01-29T04:28:12.284Z,99423.34
2023-01-29T04:30:43.249Z,99432.84
2023-01-29T04:33:10.395Z,99438.03
2023-01-29T04:35:37.346Z,99435.47
2023-01-29T04:38:28.793Z,99440.63
2023-01-29T04:41:11.711Z,99442.34
2023-01-29T04:44:00.050Z,99444.06
2023-01-29T04:46:50.087Z,99443.22
2023-01-29T04:49:31.704Z,99440.63
2023-01-29T04:52:07.549Z,99444.97
2023-01-29T04:54:49.812Z,99442.38
2023-01-29T04:57:49.217Z,99441.47
2023-01-29T05:00:28.788Z,99435.47
2023-01-29T05:02:56.838Z,99437.16
2023-01-29T05:05:24.206Z,99425.97
2023-01-29T05:07:51.592Z,99419.03
2023-01-29T05:10:22.856Z,99414.72
2023-01-29T05:13:00.609Z,99418.19
2023-01-29T05:15:42.238Z,99414.72
2023-01-29T05:18:10.233Z,99421.59
2023-01-29T05:20:40.031Z,99422.47
2023-01-29T05:23:21.222Z,99423.28
2023-01-29T05:25:49.794Z,99418.09
2023-01-29T05:28:17.395Z,99407.72
2023-01-29T05:30:45.831Z,99409.47
2023-01-29T05:33:18.906Z,99404.25
2023-01-29T05:35:46.324Z,99397.38
2023-01-29T05:38:13.897Z,99407.72
2023-01-29T05:40:41.204Z,99400.81
2023-01-29T05:43:23.692Z,99406.84
2023-01-29T05:46:00.878Z,99409.44
2023-01-29T05:48:29.276Z,99397.38
2023-01-29T05:51:04.311Z,99393.00
2023-01-29T05:53:32.141Z,99399.94
2023-01-29T05:56:02.485Z,99393.00
2023-01-29T05:58:31.974Z,99395.59
2023-01-29T06:01:07.497Z,99385.25
2023-01-29T06:03:34.422Z,99390.41
2023-01-29T06:06:02.301Z,99393.00
2023-01-29T06:08:29.163Z,99394.75
2023-01-29T06:10:56.628Z,99397.34
2023-01-29T06:13:23.834Z,99411.13
2023-01-29T06:15:51.215Z,99415.41
2023-01-29T06:18:18.429Z,99423.19
2023-01-29T06:20:45.637Z,99424.88
2023-01-29T06:23:12.638Z,99431.81
2023-01-29T06:25:39.894Z,99430.94
2023-01-29T06:28:06.889Z,99436.97
2023-01-29T06:30:34.171Z,99440.44
2023-01-29T06:33:03.831Z,99442.19
2023-01-29T06:35:31.142Z,99437.88
2023-01-29T06:37:58.007Z,99435.22
2023-01-29T06:40:25.163Z,99435.25
2023-01-29T06:42:52.092Z,99442.97
2023-01-29T06:45:19.330Z,99449.00
2023-01-29T06:47:46.317Z,99452.47
2023-01-29T06:50:13.689Z,99456.81
2023-01-29T06:52:40.649Z,99461.13
2023-01-29T06:55:08.325Z,99456.81
2023-01-29T06:57:35.577Z,99452.53
2023-01-29T07:00:02.982Z,99462.03
2023-01-29T07:02:29.938Z,99462.00
2023-01-29T07:04:57.121Z,99458.53
2023-01-29T07:07:23.986Z,99454.19
2023-01-29T07:09:51.219Z,99457.69
2023-01-29T07:12:18.132Z,99445.59
2023-01-29T07:14:45.452Z,99445.66
2023-01-29T07:17:12.409Z,99448.28
2023-01-29T07:19:39.591Z,99439.69
2023-01-29T07:22:06.455Z,99432.78
2023-01-29T07:24:33.667Z,99433.63
2023-01-29T07:27:00.874Z,99429.34
2023-01-29T07:29:28.086Z,99431.13
2023-01-29T07:31:55.097Z,99435.47
2023-01-29T07:34:22.379Z,99439.78
2023-01-29T07:36:49.490Z,99431.16
2023-01-29T07:39:16.715Z,99424.19
2023-01-29T07:41:43.669Z,99436.31
2023-01-29T07:44:10.881Z,99444.97
2023-01-29T07:46:37.796Z,99450.19
2023-01-29T07:49:05.081Z,99448.38
2023-01-29T07:51:32.130Z,99457.03
2023-01-29T07:53:59.418Z,99460.44
2023-01-29T07:56:26.494Z,99463.88
2023-01-29T07:58:53.616Z,99462.97
2023-01-29T08:01:20.556Z,99464.69
2023-01-29T08:03:49.449Z,99477.59
2023-01-29T08:06:17.434Z,99476.66
2023-01-29T08:08:44.611Z,99475.75
2023-01-29T08:11:11.540Z,99474.03
2023-01-29T08:13:38.743Z,99485.25
2023-01-29T08:16:06.173Z,99480.94
2023-01-29T08:18:34.706Z,99492.19
2023-01-29T08:21:02.426Z,99494.75
2023-01-29T08:23:30.308Z,99494.75
2023-01-29T08:25:57.287Z,99502.50
2023-01-29T08:28:24.889Z,99505.94
2023-01-29T08:30:51.940Z,99505.03
2023-01-29T08:33:23.751Z,99509.31
2023-01-29T08:35:53.952Z,99518.81
2023-01-29T08:38:21.810Z,99516.25
2023-01-29T08:40:48.729Z,99530.91
2023-01-29T08:43:15.975Z,99525.75
2023-01-29T08:45:44.222Z,99530.88
2023-01-29T08:48:11.752Z,99535.09
2023-01-29T08:50:38.991Z,99534.22
2023-01-29T08:53:08.461Z,99541.13
2023-01-29T08:55:37.941Z,99541.06
2023-01-29T08:58:06.504Z,99536.78
2023-01-29T09:00:34.510Z,99533.31
2023-01-29T09:03:01.765Z,99543.75
2023-01-29T09:05:29.093Z,99537.69
2023-01-29T09:07:59.659Z,99541.19
2023-01-29T09:10:27.069Z,99540.34
2023-01-29T09:12:54.467Z,99540.34
2023-01-29T09:15:21.356Z,99541.22
2023-01-29T09:17:51.274Z,99534.28
2023-01-29T09:20:19.677Z,99538.63
2023-01-29T09:22:47.179Z,99532.56
2023-01-29T09:25:14.632Z,99529.06
2023-01-29T09:27:42.310Z,99527.34
2023-01-29T09:30:09.874Z,99529.03
2023-01-29T09:32:52.593Z,99520.31
2023-01-29T09:35:20.715Z,99524.63
2023-01-29T09:37:48.965Z,99522.00
2023-01-29T09:40:35.634Z,99526.31
2023-01-29T09:43:19.466Z,99521.16
2023-01-29T09:46:04.610Z,99522.81
2023-01-29T09:48:34.418Z,99516.75
2023-01-29T09:51:07.352Z,99515.00
2023-01-29T09:53:53.493Z,99518.44
2023-01-29T09:56:22.357Z,99517.66
2023-01-29T09:58:49.601Z,99509.03
2023-01-29T10:01:44.363Z,99508.19
2023-01-29T10:04:20.748Z,99501.28
2023-01-29T10:07:06.214Z,99496.09
2023-01-29T10:09:55.903Z,99482.31
2023-01-29T10:12:25.403Z,99477.22
2023-01-29T10:15:11.151Z,99469.50
2023-01-29T10:18:01.187Z,99466.06
2023-01-29T10:20:40.542Z,99466.97
2023-01-29T10:23:17.302Z,99462.69
2023-01-29T10:25:47.361Z,99467.94
2023-01-29T10:28:30.373Z,99467.16
2023-01-29T10:31:05.847Z,99461.19
2023-01-29T10:33:49.408Z,99467.28
2023-01-29T10:36:52.964Z,99457.84
2023-01-29T10:39:22.146Z,99444.03
2023-01-29T10:41:58.050Z,99444.88
2023-01-29T10:44:46.521Z,99445.00
2023-01-29T10:47:23.897Z,99444.09
2023-01-29T10:50:33.467Z,99438.16
2023-01-29T10:53:31.302Z,99430.50
2023-01-29T10:56:23.087Z,99433.13
2023-01-29T10:58:55.793Z,99424.53
2023-01-29T11:01:23.142Z,99424.63
2023-01-29T11:03:58.658Z,99404.81
2023-01-29T11:06:36.383Z,99397.16
2023-01-29T11:09:26.483Z,99398.91
2023-01-29T11:12:05.291Z,99389.38
2023-01-29T11:14:55.667Z,99375.63
2023-01-29T11:17:24.668Z,99379.09
2023-01-29T11:19:55.515Z,99373.06
2023-01-29T11:22:28.042Z,99377.34
2023-01-29T11:25:10.099Z,99374.75
2023-01-29T11:27:52.991Z,99381.69
2023-01-29T11:30:25.800Z,99362.63
2023-01-29T11:33:05.699Z,99359.19
2023-01-29T11:35:33.530Z,99347.94
2023-01-29T11:38:27.965Z,99351.38
2023-01-29T11:41:18.613Z,99350.63
2023-01-29T11:43:45.483Z,99344.59
2023-01-29T11:46:15.401Z,99341.16
2023-01-29T11:48:46.110Z,99336.88
2023-01-29T11:51:22.549Z,99340.31
2023-01-29T11:54:16.954Z,99334.28
2023-01-29T11:56:47.075Z,99330.81
2023-01-29T11:59:35.188Z,99324.75
2023-01-29T12:02:28.146Z,99329.06
2023-01-29T12:05:00.321Z,99323.88
2023-01-29T12:07:28.818Z,99320.41
2023-01-29T12:09:58.835Z,99318.72
2023-01-29T12:12:38.013Z,99315.25
2023-01-29T12:15:25.196Z,99314.38
2023-01-29T12:18:02.484Z,99301.41
2023-01-29T12:20:37.447Z,99292.75
2023-01-29T12:23:34.992Z,99282.34
2023-01-29T12:26:16.004Z,99284.94
2023-01-29T12:29:24.210Z,99281.47
2023-01-29T12:32:10.433Z,99278.03
2023-01-29T12:34:46.843Z,99291.81
2023-01-29T12:37:36.201Z,99288.34
2023-01-29T12:40:10.965Z,99293.47
2023-01-29T12:42:41.916Z,99305.53
2023-01-29T12:45:11.059Z,99307.22
2023-01-29T12:47:44.095Z,99303.75
2023-01-29T12:50:22.659Z,99303.72
2023-01-29T12:53:04.037Z,99301.06
2023-01-29T12:55:41.806Z,99294.13
2023-01-29T12:58:30.709Z,99296.63
2023-01-29T13:01:12.488Z,99292.31
2023-01-29T13:03:45.887Z,99281.06
2023-01-29T13:06:19.164Z,99282.78
2023-01-29T13:08:51.563Z,99284.53
2023-01-29T13:11:24.622Z,99289.72
2023-01-29T13:13:59.632Z,99294.09
2023-01-29T13:16:32.731Z,99289.78
2023-01-29T13:19:02.567Z,99280.28
2023-01-29T13:21:36.588Z,99280.28
2023-01-29T13:24:09.994Z,99275.97
2023-01-29T13:26:37.806Z,99275.06
2023-01-29T13:29:05.675Z,99287.16
2023-01-29T13:31:40.907Z,99279.38
2023-01-29T13:34:15.163Z,99278.44
2023-01-29T13:36:45.693Z,99274.16
2023-01-29T13:39:32.949Z,99281.94
2023-01-29T13:42:03.194Z,99274.22
2023-01-29T13:44:35.323Z,99271.63
2023-01-29T13:47:11.624Z,99272.47
2023-01-29T13:49:52.981Z,99263.78
2023-01-29T13:52:20.370Z,99268.13
2023-01-29T13:55:06.206Z,99256.94
2023-01-29T13:57:55.944Z,99267.28
2023-01-29T14:00:25.073Z,99269.00
2023-01-29T14:02:55.181Z,99276.75
2023-01-29T14:05:31.115Z,99270.72
2023-01-29T14:08:39.886Z,99264.66
2023-01-29T14:11:15.744Z,99260.28
2023-01-29T14:13:45.340Z,99256.81
2023-01-29T14:16:12.249Z,99254.19
2023-01-29T14:19:05.960Z,99248.97
2023-01-29T14:21:35.972Z,99240.31
2023-01-29T14:24:11.619Z,99242.00
2023-01-29T14:26:38.499Z,99241.16
2023-01-29T14:29:25.602Z,99242.84
2023-01-29T14:32:01.388Z,99242.84
2023-01-29T14:34:52.092Z,99245.44
2023-01-29T14:37:34.550Z,99243.69
2023-01-29T14:40:07.699Z,99243.75
2023-01-29T14:42:37.927Z,99244.56
2023-01-29T14:45:25.538Z,99242.84
2023-01-29T14:48:03.133Z,99246.31
2023-01-29T14:50:32.066Z,99240.25
2023-01-29T14:53:13.991Z,99248.81
2023-01-29T14:55:50.178Z,99243.66
2023-01-29T14:58:24.086Z,99249.69
2023-01-29T15:00:55.295Z,99252.28
2023-01-29T15:03:41.508Z,99251.44
2023-01-29T15:06:15.596Z,99254.84
2023-01-29T15:08:50.791Z,99247.94
2023-01-29T15:11:36.457Z,99247.88
2023-01-29T15:14:29.043Z,99240.13
2023-01-29T15:17:22.184Z,99242.72
2023-01-29T15:19:49.574Z,99246.13
2023-01-29T15:22:19.480Z,99247.88
2023-01-29T15:25:01.592Z,99240.09
2023-01-29T15:27:29.665Z,99251.25
2023-01-29T15:30:00.514Z,99257.31
2023-01-29T15:32:30.965Z,99257.31
2023-01-29T15:34:59.271Z,99254.72
2023-01-29T15:37:29.727Z,99253.84
2023-01-29T15:39:57.341Z,99259.88
2023-01-29T15:42:26.906Z,99242.66
2023-01-29T15:44:56.673Z,99238.31
2023-01-29T15:47:31.302Z,99236.59
2023-01-29T15:49:58.557Z,99239.16
2023-01-29T15:52:35.302Z,99248.63
2023-01-29T15:55:06.633Z,99244.28
2023-01-29T15:57:37.703Z,99246.88
2023-01-29T16:00:06.656Z,99244.31
2023-01-29T16:02:42.761Z,99236.53
2023-01-29T16:05:19.055Z,99228.78
2023-01-29T16:07:47.510Z,99222.78
2023-01-29T16:10:26.960Z,99226.19
2023-01-29T16:12:54.957Z,99225.34
2023-01-29T16:15:33.424Z,99221.03
2023-01-29T16:18:03.604Z,99226.22
2023-01-29T16:20:36.576Z,99221.88
2023-01-29T16:23:05.452Z,99220.16
2023-01-29T16:25:34.957Z,99214.97
2023-01-29T16:28:05.091Z,99209.75
2023-01-29T16:30:32.138Z,99206.31
2023-01-29T16:33:07.714Z,99207.19
2023-01-29T16:35:35.977Z,99219.22
2023-01-29T16:38:07.515Z,99225.22
2023-01-29T16:40:37.691Z,99220.03
2023-01-29T16:43:17.081Z,99220.03
2023-01-29T16:46:04.979Z,99213.97
2023-01-29T16:48:34.630Z,99212.25
2023-01-29T16:51:07.123Z,99211.38
2023-01-29T16:53:35.830Z,99214.78
2023-01-29T16:56:06.389Z,99210.44
2023-01-29T16:58:34.092Z,99214.75
2023-01-29T17:01:02.596Z,99214.75
2023-01-29T17:03:33.381Z,99216.47
2023-01-29T17:06:11.034Z,99208.75
2023-01-29T17:08:41.434Z,99197.50
2023-01-29T17:11:09.656Z,99201.88
2023-01-29T17:13:41.683Z,99210.44
2023-01-29T17:16:16.014Z,99203.56
2023-01-29T17:18:44.010Z,99197.50
2023-01-29T17:21:11.027Z,99193.22
2023-01-29T17:23:38.203Z,99200.09
2023-01-29T17:26:07.065Z,99190.59
2023-01-29T17:28:34.373Z,99198.34
2023-01-29T17:31:06.632Z,99200.97
2023-01-29T17:33:36.310Z,99200.06
2023-01-29T17:36:03.179Z,99208.66
2023-01-29T17:38:30.472Z,99213.81
2023-01-29T17:41:03.148Z,99206.91
2023-01-29T17:43:30.364Z,99198.31
2023-01-29T17:45:57.332Z,99188.88
2023-01-29T17:48:27.302Z,99188.03
2023-01-29T17:51:03.418Z,99193.19
2023-01-29T17:53:44.852Z,99182.84
2023-01-29T17:56:27.602Z,99178.50
2023-01-29T17:58:54.936Z,99163.88
2023-01-29T18:01:21.899Z,99152.66
2023-01-29T18:03:49.166Z,99156.97
2023-01-29T18:06:36.546Z,99156.13
2023-01-29T18:09:04.918Z,99154.41
2023-01-29T18:11:32.049Z,99145.78
2023-01-29T18:13:59.360Z,99135.47
2023-01-29T18:16:37.271Z,99136.31
2023-01-29T18:19:13.839Z,99134.59
2023-01-29T18:21:40.761Z,99129.44
2023-01-29T18:24:08.368Z,99127.75
2023-01-29T18:26:36.135Z,99132.94
2023-01-29T18:29:03.898Z,99121.72
2023-01-29T18:31:31.876Z,99117.41
2023-01-29T18:33:58.967Z,99126.91
2023-01-29T18:36:25.902Z,99142.41
2023-01-29T18:38:53.113Z,99130.34
2023-01-29T18:41:20.040Z,99127.75
2023-01-29T18:43:47.334Z,99131.22
2023-01-29T18:46:14.391Z,99123.47
2023-01-29T18:48:42.845Z,99111.38
2023-01-29T18:51:10.337Z,99110.53
2023-01-29T18:53:37.510Z,99120.88
2023-01-29T18:56:05.998Z,99119.16
2023-01-29T18:58:36.972Z,99120.91
2023-01-29T19:01:09.675Z,99126.09
2023-01-29T19:03:37.911Z,99111.47
2023-01-29T19:06:07.142Z,99114.03
2023-01-29T19:08:34.918Z,99128.66
2023-01-29T19:11:06.525Z,99127.81
2023-01-29T19:13:35.328Z,99122.59
2023-01-29T19:16:05.717Z,99128.66
2023-01-29T19:18:32.967Z,99133.81
2023-01-29T19:20:59.944Z,99125.19
2023-01-29T19:23:27.102Z,99129.47
2023-01-29T19:25:57.250Z,99133.78
2023-01-29T19:28:24.453Z,99126.03
2023-01-29T19:30:51.386Z,99123.47
2023-01-29T19:33:18.566Z,99130.31
2023-01-29T19:35:45.640Z,99124.34
2023-01-29T19:38:18.533Z,99127.78
2023-01-29T19:40:45.434Z,99123.47
2023-01-29T19:43:15.351Z,99128.63
2023-01-29T19:45:50.205Z,99124.34
2023-01-29T19:48:21.902Z,99123.47
2023-01-29T19:50:53.981Z,99118.31
2023-01-29T19:53:21.765Z,99111.47
2023-01-29T19:55:56.496Z,99114.84
2023-01-29T19:58:25.039Z,99108.84
2023-01-29T20:01:03.404Z,99093.28
2023-01-29T20:03:31.170Z,99102.75
2023-01-29T20:06:06.112Z,99093.22
2023-01-29T20:08:33.787Z,99093.16
2023-01-29T20:11:01.052Z,99088.03
2023-01-29T20:13:28.687Z,99081.16
2023-01-29T20:15:55.894Z,99084.59
2023-01-29T20:18:23.212Z,99074.25
2023-01-29T20:20:53.076Z,99080.25
2023-01-29T20:23:37.721Z,99075.97
2023-01-29T20:26:05.900Z,99075.94
2023-01-29T20:28:33.182Z,99075.03
2023-01-29T20:31:00.529Z,99066.47
2023-01-29T20:33:28.029Z,99059.56
2023-01-29T20:35:57.192Z,99056.97
2023-01-29T20:38:30.426Z,99056.09
2023-01-29T20:41:05.569Z,99054.38
2023-01-29T20:43:33.255Z,99050.09
2023-01-29T20:48:49.208Z,99043.16
2023-01-29T20:51:18.275Z,99035.44
2023-01-29T20:53:46.867Z,99025.97
2023-01-29T20:56:15.454Z,99038.03
2023-01-29T20:58:42.863Z,99033.69
2023-01-29T21:01:11.585Z,99025.94
2023-01-29T21:03:40.095Z,99038.88
2023-01-29T21:06:08.791Z,99029.38
2023-01-29T21:08:37.146Z,99020.81
2023-01-29T21:11:05.277Z,99013.03
2023-01-29T21:13:32.691Z,99018.16
2023-01-29T21:15:59.722Z,99012.13
2023-01-29T21:18:27.258Z,99004.38
2023-01-29T21:20:54.720Z,99015.56
2023-01-29T21:23:22.321Z,99007.81
2023-01-29T21:25:49.439Z,99009.53
2023-01-29T21:28:17.065Z,99006.06
2023-01-29T21:30:44.084Z,99009.50
2023-01-29T21:33:11.322Z,99013.81
2023-01-29T21:35:38.558Z,99014.69
2023-01-29T21:38:05.915Z,99014.69
2023-01-29T21:40:32.940Z,99010.34
2023-01-29T21:43:12.665Z,99018.06
2023-01-29T21:45:40.750Z,99006.88
2023-01-29T21:48:11.515Z,98999.97
2023-01-29T21:50:38.767Z,99012.00
2023-01-29T21:53:06.074Z,99005.91
2023-01-29T21:55:34.265Z,99011.09
2023-01-29T21:58:01.616Z,99008.50
2023-01-29T22:00:28.508Z,99005.09
2023-01-29T22:02:55.982Z,99000.81
2023-01-29T22:05:23.090Z,98991.38
2023-01-29T22:07:50.727Z,98987.97
2023-01-29T22:10:19.779Z,98980.22
2023-01-29T22:12:47.916Z,98981.94
2023-01-29T22:15:15.918Z,98982.78
2023-01-29T22:17:43.906Z,98968.13
2023-01-29T22:20:12.759Z,98971.56
2023-01-29T22:22:40.143Z,98963.84
2023-01-29T22:25:07.512Z,98957.00
2023-01-29T22:27:35.151Z,98955.28
2023-01-29T22:30:02.359Z,98953.59
2023-01-29T22:32:32.317Z,98954.50
2023-01-29T22:34:59.339Z,98949.31
2023-01-29T22:37:26.653Z,98946.72
2023-01-29T22:39:53.629Z,98944.13
2023-01-29T22:42:21.028Z,98937.25
2023-01-29T22:44:48.756Z,98945.00
2023-01-29T22:47:16.497Z,98937.25
2023-01-29T22:49:45.666Z,98943.28
2023-01-29T22:52:13.863Z,98933.84
2023-01-29T22:54:42.762Z,98933.84
2023-01-29T22:57:11.639Z,98927.84
2023-01-29T22:59:38.787Z,98922.66
2023-01-29T23:02:06.544Z,98916.66
2023-01-29T23:04:33.838Z,98923.53
2023-01-29T23:07:01.056Z,98911.50
2023-01-29T23:09:28.004Z,98908.91
2023-01-29T23:11:55.298Z,98905.47
2023-01-29T23:14:22.223Z,98906.34
2023-01-29T23:16:49.383Z,98898.56
2023-01-29T23:19:16.293Z,98892.56
2023-01-29T23:21:43.579Z,98884.81
2023-01-29T23:24:10.794Z,98892.56
2023-01-29T23:26:56.454Z,98887.38
2023-01-29T23:29:23.452Z,98888.25
2023-01-29T23:31:50.815Z,98884.81
2023-01-29T23:34:18.553Z,98876.22
2023-01-29T23:36:45.756Z,98879.66
2023-01-29T23:39:12.947Z,98877.06
2023-01-29T23:41:40.099Z,98877.06
2023-01-29T23:44:07.166Z,98877.94
2023-01-29T23:46:34.482Z,98863.28
2023-01-29T23:49:01.888Z,98870.19
2023-01-29T23:51:29.097Z,98868.50
2023-01-29T23:53:56.077Z,98875.41
2023-01-29T23:56:23.304Z,98866.75
2023-01-29T23:58:55.057Z,98868.50
